KCAD/CAD METAR and TAF weather

Enter ICAO airport designator
Station Type Date Time Source
KCAD METAR 2020/01/27 13:55 UTC NOAA

KCAD 271355Z AUTO 33007KT 7SM OVC007 M01/M02 A2984 RMK AO2 T10121025


Station Type Date Time Source
KCAD Decoded METAR 2020/01/27 13:55 UTC NOAA

Cadillac / Wexford County, MI, United States (KCAD) 44-17N 085-25W
Jan 27, 2020 - 08:55 AM EST / 2020.01.27 1355 UTC
Wind: from the NNW (330 degrees) at 8 MPH (7 KT):0
Visibility: 7 mile(s):0
Sky conditions: overcast
Temperature: 29.8 F (-1.2 C)
Windchill: 23 F (-5 C):1
Dew Point: 27.5 F (-2.5 C)
Relative Humidity: 90%
Pressure (altimeter): 29.84 in. Hg (1010 hPa)
ob: KCAD 271355Z AUTO 33007KT 7SM OVC007 M01/M02 A2984 RMK AO2 T10121025
cycle: 14

Station Type Date Time Source
KCAD TAF UTC NOAA

Error!

Example: see airport list